Terminal Aerodrome Forecast
Issued by NWS

Home | Current Version | Previous Version | Text Only | Print | Product List | Glossary On
Versions: 1 2 3 4 5 6 7 8 9 10 11 12 13 14
000
FTUS44 KCRP 280600 AAA
TAFLRD
TAF AMD
KLRD 280616Z 2806/2906 02006KT P6SM -RA SCT007 OVC018
      TEMPO 2808/2812 5SM SHRA BKN007 OVC018
     FM281600 34012G18KT P6SM BKN030
     FM282000 34010KT P6SM SCT035
     FM290100 VRB03KT P6SM SKC
      AMD NOT SKED=

USA.gov is the U.S. government's official web portal to all federal, state and local government web resources and services.